Terminal Aerodrome Forecast
Issued by NWS Cleveland, OH

Home | Current Version | Previous Version | Graphics & Text | Print | Product List | Glossary On
Versions: 1 2 3 4 5 6 7 8 9 10 11 12 13 14
000
FTUS41 KCLE 292341
TAFCAK
TAF
KCAK 292341Z 3000/3024 24008KT P6SM VCTS SCT050CB BKN250
      TEMPO 3000/3002 5SM -TSRA BKN040CB
     FM300300 26006KT P6SM SCT100 SCT250
     FM301400 28010KT P6SM SCT250
     FM302200 28012KT P6SM FEW250=

USA.gov is the U.S. government's official web portal to all federal, state and local government web resources and services.